Time;durP1;ratioP1;P1;durP2;ratioP2;P2;SDS_P1;SDS_P2;PMS_P1;PMS_P2;Temp;Humidity;BMP_temperature;BMP_pressure;BME280_temperature;BME280_humidity;BME280_pressure;Samples;Min_cycle;Max_cycle;Signal;HPM_P1;HPM_P2
2022/04/03 00:00:11;;;;;;;6.90;5.25;;;-2.10;99.90;;;;;;4981504;28;20042;-49
2022/04/03 00:02:37;;;;;;;7.18;5.45;;;-2.10;99.90;;;;;;4986155;28;20042;-45
2022/04/03 00:05:04;;;;;;;5.13;4.30;;;-2.10;99.90;;;;;;4972703;28;20668;-46
2022/04/03 00:07:29;;;;;;;6.78;4.70;;;-2.20;99.90;;;;;;4977604;28;20029;-46
2022/04/03 00:09:55;;;;;;;8.38;5.53;;;-2.10;99.90;;;;;;4992399;28;20174;-48
2022/04/03 00:12:20;;;;;;;5.85;4.82;;;-2.10;99.90;;;;;;4992349;28;20037;-47
2022/04/03 00:14:46;;;;;;;5.15;4.28;;;-2.20;99.90;;;;;;4992560;28;20366;-47
2022/04/03 00:17:11;;;;;;;6.25;4.35;;;-2.20;99.90;;;;;;4984229;28;20513;-46
2022/04/03 00:19:38;;;;;;;6.63;4.95;;;-2.20;99.90;;;;;;4972351;28;20536;-47
2022/04/03 00:22:03;;;;;;;6.72;4.70;;;-2.20;99.90;;;;;;4974876;28;20034;-45
2022/04/03 00:24:29;;;;;;;7.40;4.70;;;-2.20;99.90;;;;;;4970703;28;20095;-46
2022/04/03 00:26:55;;;;;;;7.03;4.30;;;-2.20;99.90;;;;;;4986386;28;20057;-49
2022/04/03 00:29:20;;;;;;;6.55;4.65;;;-2.20;99.90;;;;;;4991193;28;20032;-45
2022/04/03 00:31:46;;;;;;;5.57;4.28;;;-2.20;99.90;;;;;;4968899;28;20038;-46
2022/04/03 00:34:12;;;;;;;6.53;4.13;;;-2.20;99.90;;;;;;4972572;28;20430;-50
2022/04/03 00:36:37;;;;;;;6.65;4.45;;;-2.20;99.90;;;;;;4969493;28;20442;-46
2022/04/03 00:39:03;;;;;;;5.88;4.20;;;-2.20;99.90;;;;;;4981086;28;20030;-47
2022/04/03 00:41:28;;;;;;;5.65;4.93;;;-2.20;99.90;;;;;;4990262;28;20524;-45
2022/04/03 00:43:55;;;;;;;6.00;4.57;;;-2.20;99.90;;;;;;4991445;28;20037;-47
2022/04/03 00:46:23;;;;;;;7.50;4.72;;;-2.10;99.90;;;;;;4990098;28;20038;-48
2022/04/03 00:48:49;;;;;;;6.90;4.88;;;-2.10;99.90;;;;;;4982901;28;20054;-45
2022/04/03 00:51:15;;;;;;;5.45;4.50;;;-2.10;99.90;;;;;;4971973;28;20030;-47
2022/04/03 00:53:40;;;;;;;7.78;4.70;;;-2.10;99.90;;;;;;4973108;28;20034;-47
2022/04/03 00:56:07;;;;;;;7.97;4.85;;;-2.10;99.90;;;;;;4979480;28;20052;-48
2022/04/03 00:58:33;;;;;;;7.32;5.00;;;-2.10;99.90;;;;;;4985633;28;20721;-45
2022/04/03 01:00:58;;;;;;;7.03;5.13;;;-2.10;99.90;;;;;;4971257;28;20042;-48
2022/04/03 01:03:24;;;;;;;7.88;5.10;;;-2.10;99.90;;;;;;4970083;28;20023;-46
2022/04/03 01:05:49;;;;;;;9.40;6.07;;;-2.10;99.90;;;;;;4971877;28;20393;-45
2022/04/03 01:08:15;;;;;;;8.55;5.50;;;-2.20;99.90;;;;;;4973167;28;20027;-46
2022/04/03 01:10:41;;;;;;;6.63;4.95;;;-2.20;99.90;;;;;;4972168;28;20035;-48
2022/04/03 01:13:07;;;;;;;7.93;5.18;;;-2.20;99.90;;;;;;4971662;28;20075;-46
2022/04/03 01:15:33;;;;;;;8.15;5.15;;;-2.20;99.90;;;;;;4971269;28;20026;-46
2022/04/03 01:17:59;;;;;;;7.75;6.10;;;-2.20;99.90;;;;;;4971708;28;20029;-45
2022/04/03 01:20:25;;;;;;;9.30;5.30;;;-2.20;99.90;;;;;;4971754;28;20067;-48
2022/04/03 01:22:50;;;;;;;10.02;5.95;;;-2.20;99.90;;;;;;4971185;28;20073;-45
2022/04/03 01:25:16;;;;;;;7.65;5.30;;;-2.20;99.90;;;;;;4971516;28;20469;-46
2022/04/03 01:27:42;;;;;;;6.97;5.45;;;-2.20;99.90;;;;;;4971666;28;20088;-49
2022/04/03 01:30:10;;;;;;;7.88;5.05;;;-2.20;99.90;;;;;;4971495;28;20681;-47
2022/04/03 01:32:36;;;;;;;9.18;5.85;;;-2.20;99.90;;;;;;4971825;28;20026;-47
2022/04/03 01:35:03;;;;;;;8.75;5.72;;;-2.20;99.90;;;;;;4980737;28;20041;-47
2022/04/03 01:37:29;;;;;;;8.98;6.32;;;-2.30;99.90;;;;;;4990209;28;20062;-48
2022/04/03 01:39:55;;;;;;;9.40;5.70;;;-2.30;99.90;;;;;;4990343;28;20497;-46
2022/04/03 01:42:21;;;;;;;7.80;5.15;;;-2.30;99.90;;;;;;4987821;28;20117;-45
2022/04/03 01:44:46;;;;;;;7.53;5.63;;;-2.30;99.90;;;;;;4972373;28;20625;-46
2022/04/03 01:47:12;;;;;;;8.48;5.50;;;-2.40;99.90;;;;;;4977222;28;20042;-47
2022/04/03 01:49:37;;;;;;;7.25;5.30;;;-2.40;99.90;;;;;;4977657;28;20027;-50
2022/04/03 01:52:04;;;;;;;8.07;6.00;;;-2.40;99.90;;;;;;4970576;28;20044;-47
2022/04/03 01:54:29;;;;;;;10.13;5.47;;;-2.40;99.90;;;;;;4971265;28;20387;-46
2022/04/03 01:56:55;;;;;;;8.70;5.78;;;-2.40;99.90;;;;;;4971358;28;20029;-47
2022/04/03 01:59:21;;;;;;;7.80;5.72;;;-2.50;99.90;;;;;;4971186;28;20049;-47
2022/04/03 02:01:48;;;;;;;5.72;5.00;;;-2.50;99.90;;;;;;4970096;28;20029;-45
2022/04/03 02:04:13;;;;;;;7.50;5.05;;;-2.50;99.90;;;;;;4971085;28;20027;-47
2022/04/03 02:06:40;;;;;;;7.65;5.78;;;-2.50;99.90;;;;;;4971510;28;20045;-45
2022/04/03 02:09:07;;;;;;;9.25;6.28;;;-2.50;99.90;;;;;;4971082;28;20181;-47
2022/04/03 02:11:34;;;;;;;10.77;5.93;;;-2.60;99.90;;;;;;4971341;28;20026;-45
2022/04/03 02:13:59;;;;;;;9.70;5.30;;;-2.60;99.90;;;;;;4970283;28;20564;-45
2022/04/03 02:16:25;;;;;;;8.32;5.78;;;-2.60;99.90;;;;;;4970731;28;20110;-48
2022/04/03 02:18:50;;;;;;;7.75;5.13;;;-2.60;99.90;;;;;;4970973;28;20086;-47
2022/04/03 02:21:17;;;;;;;8.43;5.28;;;-2.60;99.90;;;;;;4971217;28;20517;-45
2022/04/03 02:23:43;;;;;;;8.23;5.60;;;-2.70;99.90;;;;;;4970882;28;20026;-48
2022/04/03 02:26:09;;;;;;;8.63;5.57;;;-2.70;99.90;;;;;;4970889;28;20046;-47
2022/04/03 02:28:35;;;;;;;7.97;6.18;;;-2.70;99.90;;;;;;4971056;28;20042;-45
2022/04/03 02:31:01;;;;;;;5.68;4.88;;;-2.70;99.90;;;;;;4970852;28;20034;-46
2022/04/03 02:33:27;;;;;;;7.32;5.68;;;-2.80;99.90;;;;;;4970746;28;20082;-47
2022/04/03 02:35:52;;;;;;;6.05;4.95;;;-2.70;99.90;;;;;;4970708;28;20476;-47
2022/04/03 02:38:18;;;;;;;6.05;5.05;;;-2.80;99.90;;;;;;4970801;28;20102;-45
2022/04/03 02:40:44;;;;;;;7.38;5.75;;;-2.80;99.90;;;;;;4970673;28;20117;-46
2022/04/03 02:43:10;;;;;;;5.45;4.80;;;-2.80;99.90;;;;;;4971731;28;20181;-49
2022/04/03 02:45:36;;;;;;;8.77;5.57;;;-2.80;99.90;;;;;;4971946;28;20037;-47
2022/04/03 02:48:02;;;;;;;7.93;5.38;;;-2.90;99.90;;;;;;4973238;28;20098;-47
2022/04/03 02:50:27;;;;;;;6.85;5.45;;;-2.80;99.90;;;;;;4975873;28;20113;-46
2022/04/03 02:52:54;;;;;;;7.07;5.60;;;-2.90;99.90;;;;;;4990044;28;20026;-50
2022/04/03 02:55:21;;;;;;;7.93;4.88;;;-2.90;99.90;;;;;;4989698;28;20535;-48
2022/04/03 02:57:47;;;;;;;10.35;6.00;;;-2.90;99.90;;;;;;4987114;28;20505;-45
2022/04/03 03:00:19;;;;;;;6.53;4.75;;;-3.00;99.90;;;;;;4971539;28;20042;-45
2022/04/03 03:02:47;;;;;;;8.73;5.03;;;-3.00;99.90;;;;;;4977038;28;20489;-44
2022/04/03 03:05:14;;;;;;;8.20;6.03;;;-3.00;99.90;;;;;;4970718;28;20401;-47
2022/04/03 03:07:40;;;;;;;6.15;4.95;;;-3.00;99.90;;;;;;4971805;28;20027;-47
2022/04/03 03:10:08;;;;;;;8.88;5.60;;;-3.00;99.90;;;;;;4970427;28;20089;-47
2022/04/03 03:12:33;;;;;;;6.07;4.80;;;-3.00;99.90;;;;;;4970169;28;20035;-46
2022/04/03 03:14:59;;;;;;;7.35;5.75;;;-3.00;99.90;;;;;;4962429;28;20501;-47
2022/04/03 03:17:25;;;;;;;7.45;5.22;;;-3.00;99.90;;;;;;4989689;28;20026;-50
2022/04/03 03:19:51;;;;;;;9.48;6.57;;;-3.10;99.90;;;;;;4986523;28;20068;-48
2022/04/03 03:22:17;;;;;;;7.90;5.32;;;-3.00;99.90;;;;;;4980770;28;20457;-50
2022/04/03 03:24:43;;;;;;;8.45;6.45;;;-3.10;99.90;;;;;;4979469;28;20026;-50
2022/04/03 03:27:08;;;;;;;9.30;5.70;;;-3.10;99.90;;;;;;4974443;28;20135;-47
2022/04/03 03:29:34;;;;;;;10.23;5.75;;;-3.10;99.90;;;;;;4973616;28;20059;-48
2022/04/03 03:32:00;;;;;;;7.97;5.65;;;-3.10;99.90;;;;;;4974150;28;20393;-48
2022/04/03 03:34:25;;;;;;;7.07;5.60;;;-3.10;99.90;;;;;;4974990;28;20108;-47
2022/04/03 03:36:51;;;;;;;7.60;5.78;;;-3.10;99.90;;;;;;4974040;28;20030;-47
2022/04/03 03:39:16;;;;;;;8.35;6.22;;;-3.10;99.90;;;;;;4986648;28;20037;-47
2022/04/03 03:41:43;;;;;;;8.43;5.90;;;-3.10;99.90;;;;;;4992567;28;20150;-45
2022/04/03 03:44:10;;;;;;;9.95;5.97;;;-3.10;99.90;;;;;;4992617;28;20062;-46
2022/04/03 03:46:37;;;;;;;7.55;5.65;;;-3.20;99.90;;;;;;4993145;28;20038;-49
2022/04/03 03:49:03;;;;;;;7.05;5.65;;;-3.20;99.90;;;;;;4980446;28;20034;-48
2022/04/03 03:51:29;;;;;;;8.25;6.32;;;-3.20;99.90;;;;;;4992678;28;20026;-46
2022/04/03 03:53:54;;;;;;;6.03;5.25;;;-3.20;99.90;;;;;;4974588;28;20782;-48
2022/04/03 03:56:20;;;;;;;10.07;5.85;;;-3.20;99.90;;;;;;4983062;28;20433;-47
2022/04/03 03:58:46;;;;;;;7.50;5.88;;;-3.20;99.90;;;;;;4973352;28;20366;-47
2022/04/03 04:01:12;;;;;;;10.85;6.13;;;-3.20;99.90;;;;;;4977192;28;20749;-47
2022/04/03 04:03:38;;;;;;;8.75;5.60;;;-3.20;99.90;;;;;;4992251;28;20448;-47
2022/04/03 04:06:04;;;;;;;6.47;5.63;;;-3.20;99.90;;;;;;4987872;28;20039;-49
2022/04/03 04:08:29;;;;;;;7.97;5.50;;;-3.20;99.90;;;;;;4973447;28;20142;-47
2022/04/03 04:10:57;;;;;;;7.00;5.18;;;-3.20;99.90;;;;;;4974635;28;20031;-47
2022/04/03 04:13:22;;;;;;;9.40;6.35;;;-3.20;99.90;;;;;;4978863;28;20022;-48
2022/04/03 04:15:48;;;;;;;8.38;5.70;;;-3.20;99.90;;;;;;4975455;28;20034;-46
2022/04/03 04:18:13;;;;;;;9.82;6.63;;;-3.20;99.90;;;;;;4973223;28;20393;-45
2022/04/03 04:20:39;;;;;;;6.95;5.30;;;-3.30;99.90;;;;;;4973186;28;20023;-47
2022/04/03 04:23:04;;;;;;;7.28;5.45;;;-3.30;99.90;;;;;;4972872;28;20039;-46
2022/04/03 04:25:31;;;;;;;7.00;5.50;;;-3.30;99.90;;;;;;4974332;28;20030;-46
2022/04/03 04:27:58;;;;;;;9.70;5.18;;;-3.30;99.90;;;;;;4986460;28;20563;-47
2022/04/03 04:30:24;;;;;;;7.28;5.28;;;-3.30;99.90;;;;;;4973810;28;20703;-47
2022/04/03 04:32:50;;;;;;;7.75;5.68;;;-3.30;99.90;;;;;;4978403;28;20087;-45
2022/04/03 04:35:15;;;;;;;6.38;5.25;;;-3.30;99.90;;;;;;4991211;28;20042;-48
2022/04/03 04:37:42;;;;;;;7.53;5.32;;;-3.30;99.90;;;;;;4991850;28;20022;-48
2022/04/03 04:40:09;;;;;;;7.85;5.65;;;-3.30;99.90;;;;;;4977127;28;20078;-46
2022/04/03 04:42:35;;;;;;;8.88;5.57;;;-3.30;99.90;;;;;;4976595;28;20023;-47
2022/04/03 04:45:02;;;;;;;6.78;5.00;;;-3.40;99.90;;;;;;4991393;28;20081;-49
2022/04/03 04:47:27;;;;;;;5.43;4.90;;;-3.40;99.90;;;;;;4989912;28;20097;-47
2022/04/03 04:49:53;;;;;;;6.72;5.28;;;-3.40;99.90;;;;;;4990253;28;20126;-47
2022/04/03 04:52:18;;;;;;;6.55;5.00;;;-3.40;99.90;;;;;;4991382;28;20038;-45
2022/04/03 04:54:44;;;;;;;9.57;6.07;;;-3.40;99.90;;;;;;4991681;28;20050;-48
2022/04/03 04:57:09;;;;;;;6.05;4.95;;;-3.40;99.90;;;;;;4985313;28;20061;-46
2022/04/03 04:59:35;;;;;;;6.40;4.30;;;-3.40;99.90;;;;;;4972421;28;20023;-48
2022/04/03 05:02:00;;;;;;;8.20;4.75;;;-3.40;99.90;;;;;;4972236;28;20034;-47
2022/04/03 05:04:26;;;;;;;5.78;4.65;;;-3.40;99.90;;;;;;4973499;28;20030;-45
2022/04/03 05:06:52;;;;;;;8.50;5.03;;;-3.40;99.90;;;;;;4988806;28;20476;-47
2022/04/03 05:09:20;;;;;;;7.28;4.40;;;-3.40;99.90;;;;;;4973933;28;20035;-49
2022/04/03 05:11:46;;;;;;;7.70;5.65;;;-3.30;99.90;;;;;;4987319;28;20511;-46
2022/04/03 05:14:13;;;;;;;7.40;4.80;;;-3.30;99.90;;;;;;4974274;28;20670;-48
2022/04/03 05:16:39;;;;;;;5.88;5.07;;;-3.40;99.90;;;;;;4988230;28;20065;-46
2022/04/03 05:19:05;;;;;;;8.43;5.03;;;-3.40;99.90;;;;;;4991195;28;20050;-47
2022/04/03 05:21:30;;;;;;;7.82;5.25;;;-3.40;99.90;;;;;;4991116;28;20516;-48
2022/04/03 05:23:56;;;;;;;7.10;5.10;;;-3.40;99.90;;;;;;4988698;28;20092;-47
2022/04/03 05:26:22;;;;;;;9.85;4.78;;;-3.40;99.90;;;;;;4972167;28;20054;-49
2022/04/03 05:28:48;;;;;;;5.55;4.07;;;-3.30;99.90;;;;;;4972118;28;20037;-47
2022/04/03 05:31:13;;;;;;;6.35;4.68;;;-3.30;99.90;;;;;;4979905;28;20037;-47
2022/04/03 05:33:39;;;;;;;7.40;5.38;;;-3.20;99.90;;;;;;4990759;28;20026;-44
2022/04/03 05:36:05;;;;;;;6.32;5.35;;;-3.20;99.90;;;;;;4990621;28;20448;-47
2022/04/03 05:38:31;;;;;;;5.45;4.53;;;-3.10;99.90;;;;;;4983569;28;20064;-46
2022/04/03 05:40:57;;;;;;;6.97;5.13;;;-3.10;99.90;;;;;;5001437;23;20539;-49
2022/04/03 05:43:23;;;;;;;7.30;5.00;;;-3.00;99.90;;;;;;4989837;28;20022;-50
2022/04/03 05:45:48;;;;;;;6.28;5.15;;;-2.90;99.90;;;;;;4990573;28;20034;-48
2022/04/03 05:48:14;;;;;;;5.85;4.95;;;-2.70;99.90;;;;;;4990436;28;20030;-48
2022/04/03 05:50:40;;;;;;;7.60;5.38;;;-2.60;99.90;;;;;;4990215;28;20030;-48
2022/04/03 05:53:06;;;;;;;5.75;4.32;;;-2.60;99.90;;;;;;4990145;28;20132;-48
2022/04/03 05:55:31;;;;;;;9.07;5.60;;;-2.50;99.90;;;;;;4990706;28;20068;-49
2022/04/03 05:57:57;;;;;;;8.23;5.50;;;-2.40;99.90;;;;;;4990325;28;20634;-53
2022/04/03 06:00:24;;;;;;;8.25;5.75;;;-2.30;99.90;;;;;;4990050;28;20390;-50
2022/04/03 06:02:55;;;;;;;7.43;5.85;;;-2.20;99.90;;;;;;4979943;28;20497;-48
2022/04/03 06:05:23;;;;;;;6.30;4.70;;;-2.10;99.90;;;;;;4972810;28;20122;-48
2022/04/03 06:07:49;;;;;;;7.65;5.28;;;-2.00;99.90;;;;;;4990543;28;20045;-50
2022/04/03 06:10:16;;;;;;;5.80;4.80;;;-1.90;99.90;;;;;;4990279;28;20492;-50
2022/04/03 06:12:54;;;;;;;12.55;5.68;;;-1.80;99.90;;;;;;4989829;28;20038;-50
2022/04/03 06:15:20;;;;;;;7.93;4.75;;;-1.70;99.90;;;;;;4990078;28;20029;-51
2022/04/03 06:17:51;;;;;;;7.95;5.47;;;-1.50;99.90;;;;;;4990160;28;20030;-48
2022/04/03 06:20:18;;;;;;;7.80;5.30;;;-1.40;99.90;;;;;;4989816;28;20053;-50
2022/04/03 06:22:44;;;;;;;7.50;5.45;;;-1.30;99.90;;;;;;4989582;28;20031;-47
2022/04/03 06:25:09;;;;;;;7.95;5.53;;;-1.20;99.90;;;;;;4990225;28;20253;-50
2022/04/03 06:27:35;;;;;;;7.55;5.43;;;-1.10;99.90;;;;;;4988598;28;20489;-50
2022/04/03 06:30:00;;;;;;;11.75;5.05;;;-1.00;99.90;;;;;;4989886;28;20035;-49
2022/04/03 06:32:26;;;;;;;5.50;4.60;;;-0.80;99.90;;;;;;4989956;28;20045;-49
2022/04/03 06:34:52;;;;;;;6.32;4.70;;;-0.70;99.90;;;;;;4989429;28;20177;-49
2022/04/03 06:37:18;;;;;;;6.80;5.30;;;-0.60;99.90;;;;;;4990131;28;20088;-49
2022/04/03 06:39:43;;;;;;;7.70;4.72;;;-0.40;99.90;;;;;;4990071;28;20500;-48
2022/04/03 06:42:09;;;;;;;7.00;3.85;;;-0.30;99.90;;;;;;4990148;28;20061;-49
2022/04/03 06:44:35;;;;;;;4.15;3.53;;;-0.20;99.90;;;;;;4988716;28;20035;-51
2022/04/03 06:47:01;;;;;;;4.60;4.20;;;-0.10;99.90;;;;;;4990101;28;20480;-47
2022/04/03 06:49:29;;;;;;;4.57;4.05;;;0.00;99.90;;;;;;4989873;28;20030;-49
2022/04/03 06:51:55;;;;;;;4.20;3.33;;;0.10;99.90;;;;;;4989668;28;20034;-51
2022/04/03 06:54:21;;;;;;;8.63;4.45;;;0.20;99.90;;;;;;4988160;28;20114;-47
2022/04/03 06:56:46;;;;;;;7.53;4.15;;;0.40;99.90;;;;;;4990180;28;20092;-48
2022/04/03 06:59:12;;;;;;;5.20;3.20;;;0.50;99.90;;;;;;4988889;28;20053;-49
2022/04/03 07:01:37;;;;;;;5.45;3.78;;;0.60;99.90;;;;;;4989276;28;20520;-49
2022/04/03 07:04:04;;;;;;;4.00;3.45;;;0.70;99.90;;;;;;4991996;28;20469;-50
2022/04/03 07:06:29;;;;;;;5.15;3.47;;;0.70;99.90;;;;;;4993707;28;20037;-48
2022/04/03 07:08:55;;;;;;;5.43;3.95;;;0.70;99.90;;;;;;4993805;28;20519;-49
2022/04/03 07:11:20;;;;;;;5.38;3.10;;;0.80;99.90;;;;;;4993426;28;20030;-50
2022/04/03 07:13:46;;;;;;;4.03;3.50;;;0.70;99.90;;;;;;4993313;28;20547;-48
2022/04/03 07:16:12;;;;;;;4.60;3.10;;;0.70;99.90;;;;;;4992961;28;20043;-48
2022/04/03 07:18:37;;;;;;;4.78;3.30;;;0.70;99.90;;;;;;4993524;28;20068;-49
2022/04/03 07:21:03;;;;;;;5.78;3.85;;;0.70;99.90;;;;;;4993822;28;20073;-47
2022/04/03 07:23:29;;;;;;;5.00;3.47;;;0.70;99.90;;;;;;4993644;28;20031;-46
2022/04/03 07:25:55;;;;;;;3.78;3.40;;;0.70;99.90;;;;;;4992648;28;20378;-47
2022/04/03 07:28:20;;;;;;;4.35;2.97;;;0.80;99.90;;;;;;4992928;28;20092;-47
2022/04/03 07:30:46;;;;;;;4.60;3.15;;;0.90;99.90;;;;;;4993167;28;20038;-48
2022/04/03 07:33:11;;;;;;;3.47;2.90;;;0.90;99.90;;;;;;4993223;28;20026;-49
2022/04/03 07:35:37;;;;;;;4.53;3.15;;;0.90;99.90;;;;;;4993825;28;20026;-49
2022/04/03 07:38:03;;;;;;;5.30;3.22;;;0.90;99.90;;;;;;4993407;28;20022;-49
2022/04/03 07:40:30;;;;;;;5.05;3.53;;;1.00;99.90;;;;;;4992885;28;20058;-48
2022/04/03 07:42:56;;;;;;;3.72;3.25;;;1.10;99.90;;;;;;4992271;28;20030;-50
2022/04/03 07:45:22;;;;;;;5.35;3.65;;;1.10;99.90;;;;;;4993347;28;20054;-48
2022/04/03 07:47:50;;;;;;;4.78;3.65;;;1.20;99.90;;;;;;4993258;28;20026;-49
2022/04/03 07:50:21;;;;;;;5.10;3.80;;;1.30;99.90;;;;;;4993449;28;20421;-47
2022/04/03 07:52:48;;;;;;;8.05;3.88;;;1.40;99.90;;;;;;4992938;28;20385;-50
2022/04/03 07:55:14;;;;;;;5.22;3.60;;;1.50;99.90;;;;;;4992375;28;20026;-47
2022/04/03 07:57:40;;;;;;;5.30;3.17;;;1.60;99.90;;;;;;4993306;28;20488;-46
2022/04/03 08:00:08;;;;;;;5.22;3.72;;;1.80;99.90;;;;;;4993064;28;20081;-47
2022/04/03 08:02:37;;;;;;;3.95;3.58;;;2.00;99.90;;;;;;4992383;28;20030;-47
2022/04/03 08:05:04;;;;;;;6.03;4.00;;;2.20;99.90;;;;;;4992874;28;20102;-47
2022/04/03 08:07:45;;;;;;;3.60;3.00;;;2.60;99.90;;;;;;4992435;28;20496;-47
2022/04/03 08:10:14;;;;;;;4.00;3.40;;;3.10;99.90;;;;;;4992315;28;20022;-49
2022/04/03 08:12:41;;;;;;;5.13;3.00;;;3.40;99.90;;;;;;4990320;28;20030;-48
2022/04/03 08:15:09;;;;;;;5.60;3.10;;;3.50;99.90;;;;;;4990659;28;20033;-46
2022/04/03 08:17:35;;;;;;;2.55;2.35;;;3.40;99.90;;;;;;4992482;28;20015;-49
2022/04/03 08:20:01;;;;;;;2.85;2.50;;;3.40;99.90;;;;;;4992469;28;20092;-47
2022/04/03 08:22:27;;;;;;;7.88;3.25;;;3.20;99.90;;;;;;4992212;28;20051;-50
2022/04/03 08:24:54;;;;;;;4.85;2.33;;;3.10;99.90;;;;;;4992701;28;20022;-47
2022/04/03 08:27:20;;;;;;;4.13;2.42;;;2.90;99.90;;;;;;4992494;28;20037;-49
2022/04/03 08:29:46;;;;;;;2.72;2.05;;;2.80;99.90;;;;;;4993233;28;20031;-50
2022/04/03 08:32:12;;;;;;;5.25;2.80;;;2.70;99.90;;;;;;4992164;28;20031;-49
2022/04/03 08:34:39;;;;;;;3.42;2.53;;;2.70;99.90;;;;;;4992045;28;20026;-49
2022/04/03 08:37:04;;;;;;;3.72;2.55;;;2.70;99.90;;;;;;4992304;28;20084;-49
2022/04/03 08:39:30;;;;;;;2.80;2.50;;;2.70;99.90;;;;;;4990979;28;20026;-47
2022/04/03 08:41:56;;;;;;;4.30;2.40;;;2.70;99.90;;;;;;4992168;28;20485;-47
2022/04/03 08:44:22;;;;;;;3.58;2.42;;;3.00;99.90;;;;;;4992020;28;20023;-49
2022/04/03 08:46:49;;;;;;;6.18;2.85;;;3.10;99.90;;;;;;4991825;28;20053;-49
2022/04/03 08:49:17;;;;;;;2.67;2.47;;;3.20;99.90;;;;;;4991929;28;20030;-49
2022/04/03 08:51:43;;;;;;;3.30;2.75;;;3.20;99.90;;;;;;4992342;28;20034;-51
2022/04/03 08:54:10;;;;;;;3.55;2.45;;;3.30;99.90;;;;;;4991758;28;20041;-49
2022/04/03 08:56:35;;;;;;;4.47;2.95;;;3.20;99.90;;;;;;4991877;28;20546;-51
2022/04/03 08:59:02;;;;;;;4.90;2.85;;;3.50;99.90;;;;;;4991952;28;20022;-48
2022/04/03 09:01:29;;;;;;;3.85;2.72;;;3.90;99.90;;;;;;4991904;28;20120;-50
2022/04/03 09:03:55;;;;;;;3.25;2.35;;;4.20;99.90;;;;;;4989016;28;20410;-49
2022/04/03 09:06:23;;;;;;;2.10;1.73;;;4.50;99.90;;;;;;4991210;28;20041;-50
2022/04/03 09:08:49;;;;;;;5.72;2.30;;;4.90;99.90;;;;;;4991248;28;20061;-49
2022/04/03 09:11:16;;;;;;;2.67;2.22;;;5.10;99.90;;;;;;4991667;28;20065;-49
2022/04/03 09:13:43;;;;;;;4.05;2.15;;;5.20;99.90;;;;;;4972758;28;20061;-50
2022/04/03 09:16:10;;;;;;;3.22;2.15;;;5.30;99.90;;;;;;4986117;28;20029;-49
2022/04/03 09:18:52;;;;;;;3.97;1.85;;;5.20;99.90;;;;;;4991764;28;20045;-48
2022/04/03 09:21:23;;;;;;;2.40;2.03;;;5.20;99.90;;;;;;4990622;28;20069;-48
2022/04/03 09:24:12;;;;;;;3.53;2.85;;;5.20;99.90;;;;;;4990915;28;20041;-50
2022/04/03 09:26:42;;;;;;;3.95;2.10;;;5.30;99.90;;;;;;4990591;28;20073;-49
2022/04/03 09:29:15;;;;;;;2.70;2.05;;;5.30;99.90;;;;;;4990986;28;20033;-48
2022/04/03 09:31:42;;;;;;;3.20;1.70;;;5.30;99.90;;;;;;4990704;28;20493;-49
2022/04/03 09:34:17;;;;;;;3.22;1.80;;;5.40;99.90;;;;;;4989572;28;20030;-49
2022/04/03 09:36:53;;;;;;;3.20;2.05;;;5.50;99.90;;;;;;4990798;28;20152;-48
2022/04/03 09:39:24;;;;;;;;;;;5.70;99.90;;;;;;4990869;28;20056;-47
2022/04/03 09:42:03;;;;;;;2.80;1.95;;;5.90;99.90;;;;;;4989724;28;19989;-48
2022/04/03 09:44:34;;;;;;;3.58;1.70;;;6.20;99.90;;;;;;4990431;28;20068;-48
2022/04/03 09:47:14;;;;;;;5.22;2.40;;;6.50;99.90;;;;;;4991036;28;20116;-51
2022/04/03 09:49:42;;;;;;;3.90;1.80;;;6.60;99.90;;;;;;4990833;28;20504;-49
2022/04/03 09:52:10;;;;;;;2.30;1.70;;;6.40;99.90;;;;;;4990665;28;20034;-50
2022/04/03 09:54:39;;;;;;;4.75;1.63;;;6.40;99.90;;;;;;4990572;28;20023;-47
2022/04/03 09:57:25;;;;;;;3.25;1.42;;;6.60;99.90;;;;;;4990843;28;20026;-51
2022/04/03 09:59:53;;;;;;;5.55;1.50;;;6.80;99.90;;;;;;4990549;28;20014;-49
2022/04/03 10:02:21;;;;;;;12.82;2.05;;;7.10;99.90;;;;;;4990365;28;20121;-50
2022/04/03 10:04:47;;;;;;;2.30;1.15;;;7.40;99.90;;;;;;4990492;28;20029;-48
2022/04/03 10:07:14;;;;;;;4.35;1.23;;;7.30;99.90;;;;;;4989146;28;20030;-54
2022/04/03 10:09:47;;;;;;;2.80;1.27;;;7.30;99.90;;;;;;4990304;28;20490;-49
2022/04/03 10:12:20;;;;;;;3.17;1.30;;;7.30;99.90;;;;;;4989869;28;20118;-50
2022/04/03 10:14:47;;;;;;;4.90;1.15;;;7.10;99.90;;;;;;4990057;28;20037;-48
2022/04/03 10:17:13;;;;;;;3.15;0.95;;;7.00;99.90;;;;;;4990227;28;20029;-50
2022/04/03 10:19:40;;;;;;;1.45;1.10;;;6.70;99.90;;;;;;4990196;28;20018;-49
2022/04/03 10:22:17;;;;;;;4.32;1.20;;;6.70;99.90;;;;;;4990400;28;20062;-50
2022/04/03 10:24:48;;;;;;;6.50;3.65;;;6.60;99.90;;;;;;4989904;28;20034;-50
2022/04/03 10:27:24;;;;;;;3.58;1.10;;;6.40;99.90;;;;;;4989703;28;20029;-48
2022/04/03 10:29:50;;;;;;;3.40;2.03;;;6.20;99.90;;;;;;4990028;28;20034;-49
2022/04/03 10:32:27;;;;;;;3.30;1.33;;;5.90;99.90;;;;;;4990573;28;20038;-49
2022/04/03 10:35:07;;;;;;;4.32;1.35;;;5.50;99.90;;;;;;4990000;28;20116;-51
2022/04/03 10:37:34;;;;;;;4.70;1.08;;;5.20;99.90;;;;;;4989288;28;20040;-47
2022/04/03 10:40:11;;;;;;;5.50;1.35;;;4.90;99.90;;;;;;4989555;28;20539;-47
2022/04/03 10:43:06;;;;;;;3.47;0.95;;;4.60;99.90;;;;;;4989644;28;20052;-48
2022/04/03 10:45:46;;;;;;;2.17;0.65;;;4.40;99.90;;;;;;4983241;28;20665;-47
2022/04/03 10:48:20;;;;;;;0.88;0.77;;;4.10;99.90;;;;;;4988923;28;20031;-50
2022/04/03 10:51:05;;;;;;;1.98;0.95;;;3.80;99.90;;;;;;4989295;28;20030;-49
2022/04/03 10:53:36;;;;;;;1.42;0.90;;;3.70;99.90;;;;;;4988500;28;20109;-49
2022/04/03 10:56:08;;;;;;;2.70;1.02;;;3.60;99.90;;;;;;4989485;28;20642;-49
2022/04/03 10:58:40;;;;;;;2.63;1.10;;;3.40;99.90;;;;;;4989472;28;20015;-49
2022/04/03 11:01:11;;;;;;;1.33;0.85;;;3.30;99.90;;;;;;4981548;28;20022;-50
2022/04/03 11:03:37;;;;;;;0.60;0.60;;;3.40;99.90;;;;;;4989166;28;20057;-50
2022/04/03 11:06:24;;;;;;;0.57;0.57;;;3.40;99.90;;;;;;4985678;28;20104;-52
2022/04/03 11:09:00;;;;;;;1.30;1.10;;;3.60;99.90;;;;;;4989641;28;20519;-48
2022/04/03 11:11:55;;;;;;;0.63;0.63;;;3.90;99.90;;;;;;4988287;28;20034;-51
2022/04/03 11:14:55;;;;;;;1.45;1.00;;;4.10;99.90;;;;;;4973398;28;20050;-49
2022/04/03 11:17:53;;;;;;;1.58;0.80;;;4.40;99.90;;;;;;4988533;28;20073;-50
2022/04/03 11:20:29;;;;;;;1.80;0.70;;;4.90;99.90;;;;;;4977444;28;20074;-50
2022/04/03 11:22:55;;;;;;;3.67;1.10;;;5.20;99.90;;;;;;4985371;28;20030;-48
2022/04/03 11:25:21;;;;;;;1.85;0.80;;;5.50;99.90;;;;;;4989603;28;20150;-48
2022/04/03 11:27:48;;;;;;;2.08;0.85;;;5.80;99.90;;;;;;4989261;28;20122;-47
2022/04/03 11:30:14;;;;;;;0.60;0.50;;;6.00;99.90;;;;;;4988796;28;20023;-47
2022/04/03 11:32:41;;;;;;;1.98;0.90;;;6.30;99.90;;;;;;4989681;28;20050;-49
2022/04/03 11:35:09;;;;;;;1.73;0.70;;;6.60;99.90;;;;;;4988629;28;20149;-47
2022/04/03 11:37:34;;;;;;;1.23;0.70;;;6.90;99.90;;;;;;4989608;28;20105;-50
2022/04/03 11:40:00;;;;;;;1.00;0.70;;;7.20;99.90;;;;;;4988914;28;20102;-51
2022/04/03 11:42:26;;;;;;;2.53;1.30;;;7.50;99.90;;;;;;4990577;28;20554;-51
2022/04/03 11:44:54;;;;;;;1.35;0.90;;;7.70;99.90;;;;;;4989374;28;20624;-49
2022/04/03 11:47:21;;;;;;;4.60;1.15;;;7.70;99.90;;;;;;4989739;28;20532;-50
2022/04/03 11:50:11;;;;;;;2.25;1.05;;;7.70;99.90;;;;;;4991167;28;20022;-49
2022/04/03 11:52:38;;;;;;;4.97;1.48;;;7.50;99.90;;;;;;4993147;28;20033;-48
2022/04/03 11:55:10;;;;;;;4.53;1.75;;;7.50;99.90;;;;;;4992540;28;20371;-51
2022/04/03 11:57:36;;;;;;;3.17;1.10;;;7.40;99.90;;;;;;4992795;28;20109;-48
2022/04/03 12:00:02;;;;;;;1.50;1.10;;;7.20;99.90;;;;;;4992804;28;20161;-46
2022/04/03 12:02:27;;;;;;;2.53;1.23;;;6.80;99.90;;;;;;4992525;28;20066;-52
2022/04/03 12:04:57;;;;;;;1.38;0.60;;;6.40;99.90;;;;;;4992774;28;20112;-48
2022/04/03 12:07:22;;;;;;;1.50;0.68;;;5.80;99.90;;;;;;4992647;28;20039;-50
2022/04/03 12:09:48;;;;;;;1.95;0.40;;;5.50;99.90;;;;;;4992735;28;20029;-50
2022/04/03 12:12:13;;;;;;;1.00;0.70;;;5.10;99.90;;;;;;4992160;28;20023;-47
2022/04/03 12:14:45;;;;;;;0.65;0.45;;;5.00;99.90;;;;;;4992541;28;20388;-50
2022/04/03 12:17:18;;;;;;;1.45;0.50;;;4.90;99.90;;;;;;4991195;28;20026;-51
2022/04/03 12:19:51;;;;;;;2.50;0.50;;;4.80;99.90;;;;;;4992753;28;20026;-49
2022/04/03 12:22:19;;;;;;;0.82;0.50;;;4.70;99.90;;;;;;4992314;28;20092;-49
2022/04/03 12:24:47;;;;;;;2.83;0.73;;;4.70;99.90;;;;;;4992263;28;20033;-50
2022/04/03 12:27:16;;;;;;;2.25;0.60;;;4.60;99.90;;;;;;4992725;28;20034;-51
2022/04/03 12:29:49;;;;;;;1.75;0.55;;;4.40;99.90;;;;;;4992347;28;20396;-50
2022/04/03 12:32:17;;;;;;;2.65;0.85;;;4.30;99.90;;;;;;4992107;28;20030;-48
2022/04/03 12:34:46;;;;;;;0.77;0.77;;;4.30;99.90;;;;;;4992012;28;20029;-52
2022/04/03 12:37:12;;;;;;;2.03;1.42;;;4.40;99.90;;;;;;4991548;28;20018;-47
2022/04/03 12:40:06;;;;;;;1.67;0.80;;;4.70;99.90;;;;;;4991774;28;20134;-48
2022/04/03 12:42:35;;;;;;;1.90;0.95;;;5.10;99.90;;;;;;4991792;28;20022;-52
2022/04/03 12:45:15;;;;;;;3.05;1.05;;;5.40;99.90;;;;;;4992161;28;20436;-48
2022/04/03 12:48:05;;;;;;;2.20;0.80;;;5.80;99.90;;;;;;4991546;28;20522;-51
2022/04/03 12:50:30;;;;;;;5.65;1.27;;;6.20;99.90;;;;;;4988578;28;20041;-51
2022/04/03 12:53:01;;;;;;;0.90;0.90;;;6.50;99.90;;;;;;4991401;28;20034;-48